EBBR

Brussels Airport

Airport
ICAO code
EBBR
IATA Code
BRU
Summary
ICAO Region
EUR
ICAO Territory
Location

Zaventem Diegem, Machelen,

Serving
Brussel
Elevation
184 ft
Coordinates
50° 53' 56" N , 4° 29' 9" E
KCC
Cfb
Airport BS
Bird Strike
Metar
Observation
EBBR 152120Z 29003KT CAVOK 20/15 Q1006 NOSIG
Station
Bruxelles National
Date/Time
2022-08-15 21:20:00
Wind direction
290°
Wind speed
03 kts
Lowest cloud amount
clouds and visibility OK
Temperature
20°C
Dew point
15°C
Humidity
72%
QNH
1006 hPa
Weather condition
n/a

Description

International airport serving the capital of Belgium.

Climatology

Temperate Marine climate/Oceanic climate (Köppen climate classification Cfb) - Moderately cool summer and comparatively warm winter.

Runways

Designator Length Width Surface Rops
2/20 2987 50 ASP Yes/Yes
07R/25L 3211 45 ASP Yes/Yes
07L/25R 3638 45 CON Yes/Yes

SKYbrary Partners:

Safety knowledge contributed by: